createdAt,value
2024-04-07T00:02:00.069Z,47.52
2024-04-07T00:04:26.149Z,47.07
2024-04-07T00:06:52.787Z,47.19
2024-04-07T00:09:18.903Z,47.71
2024-04-07T00:11:45.963Z,47.39
2024-04-07T00:14:12.137Z,47.34
2024-04-07T00:16:38.420Z,45.54
2024-04-07T00:19:04.497Z,47.04
2024-04-07T00:21:31.181Z,47.13
2024-04-07T00:23:57.814Z,47.18
2024-04-07T00:26:24.290Z,47.12
2024-04-07T00:28:51.039Z,47.24
2024-04-07T00:31:17.458Z,46.63
2024-04-07T00:33:43.598Z,46.73
2024-04-07T00:36:09.958Z,45.47
2024-04-07T00:38:36.383Z,46.74
2024-04-07T00:41:03.107Z,46.25
2024-04-07T00:43:29.298Z,46.78
2024-04-07T00:45:56.430Z,45.04
2024-04-07T00:48:22.947Z,46.79
2024-04-07T00:50:51.164Z,46.63
2024-04-07T00:53:17.725Z,46.94
2024-04-07T00:55:45.401Z,46.76
2024-04-07T00:58:12.787Z,46.75
2024-04-07T01:00:42.841Z,46.50
2024-04-07T01:03:10.308Z,46.13
2024-04-07T01:05:40.948Z,45.37
2024-04-07T01:08:07.782Z,45.88
2024-04-07T01:10:34.312Z,46.24
2024-04-07T01:13:03.180Z,46.04
2024-04-07T01:15:29.765Z,46.23
2024-04-07T01:17:57.521Z,46.07
2024-04-07T01:20:24.728Z,45.97
2024-04-07T01:22:51.105Z,46.08
2024-04-07T01:25:18.559Z,45.81
2024-04-07T01:27:46.651Z,46.10
2024-04-07T01:30:13.072Z,46.30
2024-04-07T01:32:41.514Z,45.70
2024-04-07T01:35:07.956Z,45.79
2024-04-07T01:37:34.025Z,45.97
2024-04-07T01:40:03.259Z,45.82
2024-04-07T01:42:30.187Z,46.02
2024-04-07T01:44:56.704Z,46.20
2024-04-07T01:47:22.833Z,45.87
2024-04-07T01:49:49.396Z,45.23
2024-04-07T01:52:15.636Z,46.18
2024-04-07T01:54:42.015Z,46.15
2024-04-07T01:57:08.112Z,46.13
2024-04-07T01:59:35.192Z,46.21
2024-04-07T02:02:01.266Z,46.22
2024-04-07T02:04:28.584Z,46.98
2024-04-07T02:06:54.717Z,46.76
2024-04-07T02:09:21.486Z,46.84
2024-04-07T02:11:47.714Z,47.19
2024-04-07T02:14:13.872Z,47.64
2024-04-07T02:16:44.323Z,47.80
2024-04-07T02:19:11.552Z,48.05
2024-04-07T02:21:38.128Z,48.25
2024-04-07T02:24:05.245Z,48.89
2024-04-07T02:26:31.856Z,48.75
2024-04-07T02:28:58.390Z,49.17
2024-04-07T02:31:25.381Z,49.17
2024-04-07T02:33:52.411Z,49.08
2024-04-07T02:36:18.570Z,49.60
2024-04-07T02:38:44.847Z,51.62
2024-04-07T02:41:11.675Z,50.21
2024-04-07T02:43:38.569Z,50.57
2024-04-07T02:46:23.254Z,50.81
2024-04-07T02:48:49.618Z,51.00
2024-04-07T02:51:16.642Z,51.24
2024-04-07T02:53:42.817Z,51.44
2024-04-07T02:56:09.032Z,53.13
2024-04-07T02:58:35.391Z,52.62
2024-04-07T03:01:05.424Z,52.57
2024-04-07T03:03:31.770Z,52.45
2024-04-07T03:05:58.453Z,52.71
2024-04-07T03:08:25.198Z,52.85
2024-04-07T03:10:57.634Z,53.60
2024-04-07T03:13:23.755Z,53.97
2024-04-07T03:15:50.223Z,54.17
2024-04-07T03:18:16.973Z,54.11
2024-04-07T03:20:43.332Z,54.93
2024-04-07T03:23:09.640Z,54.93
2024-04-07T03:25:36.796Z,54.39
2024-04-07T03:28:03.272Z,54.86
2024-04-07T03:30:29.860Z,55.31
2024-04-07T03:32:56.069Z,55.66
2024-04-07T03:35:22.382Z,57.31
2024-04-07T03:37:48.653Z,56.69
2024-04-07T03:40:16.292Z,55.46
2024-04-07T03:42:43.499Z,56.04
2024-04-07T03:45:10.124Z,55.80
2024-04-07T03:47:36.309Z,56.38
2024-04-07T03:50:02.897Z,56.17
2024-04-07T03:52:29.268Z,56.51
2024-04-07T03:54:55.494Z,56.82
2024-04-07T03:57:22.013Z,56.99
2024-04-07T03:59:50.200Z,56.55
2024-04-07T04:02:21.231Z,56.79
2024-04-07T04:04:55.535Z,57.63
2024-04-07T04:07:28.024Z,57.49
2024-04-07T04:09:54.980Z,57.22
2024-04-07T04:12:24.027Z,57.08
2024-04-07T04:14:52.056Z,57.58
2024-04-07T04:17:18.405Z,57.86
2024-04-07T04:19:44.360Z,58.64
2024-04-07T04:22:10.863Z,57.17
2024-04-07T04:24:37.169Z,57.30
2024-04-07T04:27:03.667Z,58.69
2024-04-07T04:29:31.248Z,57.48
2024-04-07T04:31:58.403Z,57.21
2024-04-07T04:34:24.479Z,57.89
2024-04-07T04:36:52.146Z,57.71
2024-04-07T04:39:18.431Z,57.90
2024-04-07T04:41:46.373Z,59.62
2024-04-07T04:44:13.085Z,57.92
2024-04-07T04:46:41.176Z,58.33
2024-04-07T04:49:08.462Z,58.24
2024-04-07T04:51:35.024Z,58.46
2024-04-07T04:54:01.360Z,58.42
2024-04-07T04:56:27.519Z,60.21
2024-04-07T04:58:57.096Z,58.39
2024-04-07T05:01:24.168Z,57.89
2024-04-07T05:03:50.288Z,58.47
2024-04-07T05:06:19.316Z,57.95
2024-04-07T05:08:46.006Z,57.96
2024-04-07T05:11:12.398Z,57.86
2024-04-07T05:13:38.375Z,59.13
2024-04-07T05:16:05.403Z,57.86
2024-04-07T05:18:32.679Z,57.19
2024-04-07T05:21:02.586Z,57.49
2024-04-07T05:23:29.336Z,57.63
2024-04-07T05:25:55.807Z,57.70
2024-04-07T05:28:21.871Z,57.62
2024-04-07T05:30:48.209Z,57.69
2024-04-07T05:33:14.122Z,59.46
2024-04-07T05:35:40.445Z,57.87
2024-04-07T05:38:06.591Z,59.40
2024-04-07T05:40:33.350Z,57.34
2024-04-07T05:42:59.677Z,57.90
2024-04-07T05:45:25.747Z,59.17
2024-04-07T05:47:53.296Z,57.73
2024-04-07T05:50:19.585Z,57.75
2024-04-07T05:52:45.922Z,57.80
2024-04-07T05:55:11.983Z,57.80
2024-04-07T05:57:39.563Z,57.16
2024-04-07T06:00:08.686Z,56.91
2024-04-07T06:02:35.164Z,56.98
2024-04-07T06:05:01.334Z,57.22
2024-04-07T06:07:27.763Z,57.24
2024-04-07T06:09:53.985Z,57.02
2024-04-07T06:12:20.366Z,56.99
2024-04-07T06:14:47.243Z,57.56
2024-04-07T06:17:13.697Z,57.46
2024-04-07T06:19:39.910Z,57.19
2024-04-07T06:22:06.076Z,58.27
2024-04-07T06:24:32.256Z,57.65
2024-04-07T06:26:58.696Z,57.34
2024-04-07T06:29:25.072Z,57.36
2024-04-07T06:31:52.622Z,57.65
2024-04-07T06:34:18.728Z,57.59
2024-04-07T06:36:45.151Z,57.60
2024-04-07T06:39:11.641Z,57.81
2024-04-07T06:41:38.031Z,58.01
2024-04-07T06:44:04.480Z,57.83
2024-04-07T06:46:30.856Z,57.78
2024-04-07T06:48:57.583Z,57.46
2024-04-07T06:51:23.929Z,57.69
2024-04-07T06:53:50.028Z,57.71
2024-04-07T06:56:17.905Z,57.96
2024-04-07T06:58:44.004Z,57.62
2024-04-07T07:01:10.420Z,57.29
2024-04-07T07:03:36.691Z,57.40
2024-04-07T07:06:04.301Z,56.40
2024-04-07T07:08:32.641Z,56.62
2024-04-07T07:10:59.978Z,56.33
2024-04-07T07:13:28.033Z,56.00
2024-04-07T07:15:55.806Z,55.86
2024-04-07T07:18:22.234Z,56.24
2024-04-07T07:20:48.748Z,55.93
2024-04-07T07:23:15.986Z,55.94
2024-04-07T07:25:43.517Z,55.67
2024-04-07T07:28:09.752Z,56.09
2024-04-07T07:30:36.278Z,56.48
2024-04-07T07:33:02.468Z,56.41
2024-04-07T07:35:28.604Z,55.72
2024-04-07T07:37:54.837Z,55.64
2024-04-07T07:40:21.663Z,55.84
2024-04-07T07:42:48.302Z,56.00
2024-04-07T07:45:16.728Z,56.30
2024-04-07T07:47:43.014Z,56.14
2024-04-07T07:50:09.507Z,56.28
2024-04-07T07:52:35.628Z,56.40
2024-04-07T07:55:02.041Z,56.58
2024-04-07T07:57:28.826Z,56.05
2024-04-07T07:59:59.750Z,56.31
2024-04-07T08:02:28.197Z,55.98
2024-04-07T08:04:54.890Z,55.98
2024-04-07T08:07:20.961Z,56.31
2024-04-07T08:09:47.330Z,56.08
2024-04-07T08:12:15.448Z,56.05
2024-04-07T08:14:46.212Z,56.21
2024-04-07T08:17:15.346Z,56.02
2024-04-07T08:19:44.170Z,56.24
2024-04-07T08:22:10.673Z,56.13
2024-04-07T08:24:37.238Z,55.82
2024-04-07T08:27:04.360Z,56.01
2024-04-07T08:29:30.724Z,55.46
2024-04-07T08:31:57.695Z,55.22
2024-04-07T08:34:23.835Z,55.46
2024-04-07T08:36:50.202Z,55.41
2024-04-07T08:39:19.143Z,54.74
2024-04-07T08:41:46.620Z,54.12
2024-04-07T08:44:13.885Z,53.89
2024-04-07T08:46:43.641Z,53.69
2024-04-07T08:49:14.122Z,54.09
2024-04-07T08:51:41.733Z,54.19
2024-04-07T08:54:08.453Z,53.99
2024-04-07T08:56:39.610Z,53.44
2024-04-07T08:59:11.309Z,53.96
2024-04-07T09:01:40.861Z,54.04
2024-04-07T09:04:09.487Z,53.73
2024-04-07T09:06:36.473Z,53.55
2024-04-07T09:09:04.790Z,53.48
2024-04-07T09:11:35.906Z,53.50
2024-04-07T09:14:03.009Z,53.00
2024-04-07T09:16:29.109Z,52.88
2024-04-07T09:18:57.888Z,52.70
2024-04-07T09:21:25.387Z,52.72
2024-04-07T09:23:53.775Z,53.10
2024-04-07T09:26:20.129Z,52.77
2024-04-07T09:28:46.820Z,52.77
2024-04-07T09:31:15.312Z,52.91
2024-04-07T09:33:44.853Z,52.86
2024-04-07T09:36:10.930Z,53.30
2024-04-07T09:38:37.108Z,51.40
2024-04-07T09:41:04.188Z,52.10
2024-04-07T09:43:32.268Z,51.79
2024-04-07T09:46:00.104Z,52.19
2024-04-07T09:48:28.414Z,51.98
2024-04-07T09:50:58.507Z,51.83
2024-04-07T09:53:35.098Z,51.01
2024-04-07T09:56:04.578Z,51.01
2024-04-07T09:58:31.255Z,50.74
2024-04-07T10:00:58.005Z,50.68
2024-04-07T10:03:24.630Z,51.18
2024-04-07T10:05:50.711Z,51.27
2024-04-07T10:08:16.876Z,50.89
2024-04-07T10:10:47.136Z,51.44
2024-04-07T10:13:23.257Z,49.13
2024-04-07T10:15:49.989Z,50.69
2024-04-07T10:18:17.507Z,50.68
2024-04-07T10:20:43.632Z,50.47
2024-04-07T10:23:13.286Z,49.71
2024-04-07T10:25:46.384Z,49.61
2024-04-07T10:28:12.935Z,49.81
2024-04-07T10:30:50.364Z,48.67
2024-04-07T10:33:16.679Z,49.40
2024-04-07T10:35:52.475Z,49.04
2024-04-07T10:38:18.894Z,49.69
2024-04-07T10:40:45.146Z,49.76
2024-04-07T10:43:11.573Z,49.24
2024-04-07T10:45:38.072Z,49.54
2024-04-07T10:48:10.156Z,48.05
2024-04-07T10:50:37.083Z,48.72
2024-04-07T10:53:08.363Z,49.01
2024-04-07T10:55:34.947Z,48.37
2024-04-07T10:58:01.620Z,48.80
2024-04-07T11:00:27.840Z,48.76
2024-04-07T11:02:54.735Z,48.13
2024-04-07T11:05:22.594Z,47.58
2024-04-07T11:07:51.938Z,47.38
2024-04-07T11:10:18.091Z,47.33
2024-04-07T11:12:44.456Z,47.08
2024-04-07T11:15:17.502Z,45.62
2024-04-07T11:17:44.527Z,46.16
2024-04-07T11:20:11.883Z,44.15
2024-04-07T11:22:39.413Z,45.44
2024-04-07T11:25:08.803Z,44.95
2024-04-07T11:27:35.319Z,45.05
2024-04-07T11:30:01.857Z,44.83
2024-04-07T11:32:28.456Z,44.55
2024-04-07T11:34:55.135Z,43.24
2024-04-07T11:37:25.886Z,44.77
2024-04-07T11:39:56.807Z,44.72
2024-04-07T11:42:25.071Z,44.99
2024-04-07T11:44:51.148Z,44.42
2024-04-07T11:47:17.672Z,45.08
2024-04-07T11:49:44.091Z,44.96
2024-04-07T11:52:10.612Z,45.07
2024-04-07T11:54:36.685Z,44.79
2024-04-07T11:57:04.287Z,44.68
2024-04-07T11:59:32.479Z,42.85
2024-04-07T12:02:00.288Z,42.96
2024-04-07T12:04:26.403Z,43.99
2024-04-07T12:06:52.805Z,43.42
2024-04-07T12:09:18.990Z,43.99
2024-04-07T12:11:45.398Z,43.87
2024-04-07T12:14:12.138Z,43.62
2024-04-07T12:16:39.490Z,44.11
2024-04-07T12:19:05.571Z,44.71
2024-04-07T12:21:31.957Z,43.26
2024-04-07T12:23:58.870Z,42.53
2024-04-07T12:26:25.271Z,42.44
2024-04-07T12:28:51.414Z,43.03
2024-04-07T12:31:18.832Z,42.86
2024-04-07T12:33:47.029Z,42.54
2024-04-07T12:36:13.496Z,42.95
2024-04-07T12:38:39.598Z,41.89
2024-04-07T12:41:05.979Z,42.32
2024-04-07T12:43:32.146Z,41.77
2024-04-07T12:45:58.509Z,42.10
2024-04-07T12:48:25.767Z,41.81
2024-04-07T12:50:52.858Z,41.19
2024-04-07T12:53:18.948Z,41.10
2024-04-07T12:55:45.427Z,41.52
2024-04-07T12:58:11.617Z,41.45
2024-04-07T13:00:41.117Z,40.14
2024-04-07T13:03:07.379Z,39.71
2024-04-07T13:05:34.402Z,39.02
2024-04-07T13:08:00.722Z,39.73
2024-04-07T13:10:27.263Z,40.02
2024-04-07T13:12:54.015Z,39.54
2024-04-07T13:15:20.468Z,39.48
2024-04-07T13:17:46.538Z,40.05
2024-04-07T13:20:12.969Z,40.59
2024-04-07T13:22:41.398Z,40.11
2024-04-07T13:25:07.819Z,40.32
2024-04-07T13:27:34.064Z,40.40
2024-04-07T13:30:00.749Z,40.39
2024-04-07T13:32:26.817Z,39.89
2024-04-07T13:34:53.165Z,40.50
2024-04-07T13:37:19.328Z,40.16
2024-04-07T13:39:48.872Z,40.61
2024-04-07T13:42:14.972Z,40.11
2024-04-07T13:44:41.347Z,40.90
2024-04-07T13:47:07.439Z,40.48
2024-04-07T13:49:33.837Z,40.93
2024-04-07T13:52:00.473Z,41.42
2024-04-07T13:54:26.921Z,40.90
2024-04-07T13:56:53.666Z,41.64
2024-04-07T13:59:20.027Z,41.52
2024-04-07T14:01:46.088Z,41.29
2024-04-07T14:04:12.588Z,41.33
2024-04-07T14:06:38.789Z,41.39
2024-04-07T14:09:05.843Z,41.86
2024-04-07T14:11:31.931Z,42.13
2024-04-07T14:13:59.014Z,41.77
2024-04-07T14:16:25.207Z,41.90
2024-04-07T14:18:52.070Z,42.27
2024-04-07T14:21:18.217Z,41.85
2024-04-07T14:23:45.441Z,41.39
2024-04-07T14:26:12.382Z,42.24
2024-04-07T14:28:39.564Z,42.20
2024-04-07T14:31:06.359Z,41.93
2024-04-07T14:33:32.760Z,42.32
2024-04-07T14:35:58.872Z,42.20
2024-04-07T14:38:25.286Z,42.45
2024-04-07T14:40:51.422Z,42.52
2024-04-07T14:43:17.891Z,42.42
2024-04-07T14:45:53.704Z,41.21
2024-04-07T14:48:20.819Z,42.34
2024-04-07T14:50:48.257Z,42.75
2024-04-07T14:53:14.992Z,42.41
2024-04-07T14:55:41.176Z,42.93
2024-04-07T14:58:07.580Z,43.29
2024-04-07T15:00:33.787Z,42.78
2024-04-07T15:03:00.213Z,42.80
2024-04-07T15:05:26.980Z,43.04
2024-04-07T15:07:55.971Z,43.16
2024-04-07T15:10:22.105Z,43.08
2024-04-07T15:12:48.617Z,43.48
2024-04-07T15:15:14.743Z,43.11
2024-04-07T15:17:41.169Z,43.18
2024-04-07T15:20:07.456Z,43.11
2024-04-07T15:22:34.800Z,43.31
2024-04-07T15:25:01.082Z,43.66
2024-04-07T15:27:27.428Z,43.37
2024-04-07T15:29:57.272Z,43.60
2024-04-07T15:32:23.635Z,43.90
2024-04-07T15:34:49.699Z,44.31
2024-04-07T15:37:16.579Z,43.75
2024-04-07T15:39:43.414Z,44.35
2024-04-07T15:42:09.804Z,43.76
2024-04-07T15:44:35.899Z,44.33
2024-04-07T15:47:02.161Z,43.32
2024-04-07T15:49:28.623Z,44.20
2024-04-07T15:51:55.225Z,44.23
2024-04-07T15:54:21.617Z,44.75
2024-04-07T15:56:48.600Z,44.24
2024-04-07T15:59:21.163Z,44.23
2024-04-07T16:01:48.232Z,44.29
2024-04-07T16:04:14.329Z,44.57
2024-04-07T16:06:43.587Z,44.97
2024-04-07T16:09:11.510Z,45.15
2024-04-07T16:11:38.142Z,45.39
2024-04-07T16:14:04.989Z,45.32
2024-04-07T16:16:31.382Z,45.47
2024-04-07T16:18:57.732Z,45.39
2024-04-07T16:21:24.127Z,45.26
2024-04-07T16:23:50.213Z,45.19
2024-04-07T16:26:17.150Z,44.87
2024-04-07T16:28:43.315Z,46.01
2024-04-07T16:31:10.196Z,45.67
2024-04-07T16:33:38.743Z,45.89
2024-04-07T16:36:05.407Z,45.88
2024-04-07T16:38:31.636Z,46.12
2024-04-07T16:40:59.938Z,46.23
2024-04-07T16:43:26.690Z,46.20
2024-04-07T16:45:53.404Z,45.91
2024-04-07T16:49:49.626Z,46.35
2024-04-07T16:52:16.031Z,46.26
2024-04-07T16:54:44.584Z,46.03
2024-04-07T16:57:12.098Z,46.23
2024-04-07T16:59:42.888Z,46.33
2024-04-07T17:02:09.382Z,46.58
2024-04-07T17:04:38.005Z,46.25
2024-04-07T17:07:06.605Z,46.51
2024-04-07T17:09:35.443Z,46.36
2024-04-07T17:12:01.873Z,46.56
2024-04-07T17:14:30.374Z,46.91
2024-04-07T17:16:58.491Z,46.70
2024-04-07T17:19:26.967Z,46.96
2024-04-07T17:21:53.774Z,46.87
2024-04-07T17:24:24.315Z,47.02
2024-04-07T17:26:50.910Z,47.17
2024-04-07T17:29:19.456Z,47.05
2024-04-07T17:31:48.313Z,47.44
2024-04-07T17:34:14.930Z,47.40
2024-04-07T17:36:44.631Z,47.50
2024-04-07T17:39:11.371Z,47.22
2024-04-07T17:41:43.942Z,47.81
2024-04-07T17:44:10.425Z,47.82
2024-04-07T17:46:38.964Z,48.26
2024-04-07T17:49:05.398Z,48.32
2024-04-07T17:51:33.823Z,48.40
2024-04-07T17:54:00.325Z,48.48
2024-04-07T17:56:29.201Z,48.34
2024-04-07T17:58:57.729Z,48.41
2024-04-07T18:01:26.529Z,48.72
2024-04-07T18:03:53.209Z,48.78
2024-04-07T18:06:22.566Z,48.41
2024-04-07T18:08:49.171Z,48.58
2024-04-07T18:11:17.812Z,48.96
2024-04-07T18:13:45.631Z,48.53
2024-04-07T18:16:17.067Z,48.63
2024-04-07T18:18:43.511Z,48.63
2024-04-07T18:21:12.163Z,48.63
2024-04-07T18:23:38.646Z,48.90
2024-04-07T18:26:08.032Z,49.32
2024-04-07T18:28:34.539Z,49.79
2024-04-07T18:31:03.894Z,49.73
2024-04-07T18:33:36.544Z,49.46
2024-04-07T18:36:05.238Z,49.73
2024-04-07T18:38:31.631Z,49.55
2024-04-07T18:41:00.188Z,49.58
2024-04-07T18:43:26.604Z,49.70
2024-04-07T18:45:55.097Z,49.62
2024-04-07T18:48:21.465Z,49.97
2024-04-07T18:51:01.645Z,49.76
2024-04-07T18:53:28.276Z,49.82
2024-04-07T18:55:56.874Z,50.00
2024-04-07T18:58:23.563Z,50.06
2024-04-07T19:00:53.623Z,50.10
2024-04-07T19:03:20.282Z,50.18
2024-04-07T19:05:51.207Z,50.39
2024-04-07T19:08:19.954Z,50.66
2024-04-07T19:10:48.958Z,50.40
2024-04-07T19:13:15.905Z,51.02
2024-04-07T19:15:44.704Z,51.00
2024-04-07T19:18:12.059Z,51.01
2024-04-07T19:20:40.648Z,51.63
2024-04-07T19:23:07.302Z,52.04
2024-04-07T19:25:37.839Z,52.42
2024-04-07T19:28:04.867Z,52.57
2024-04-07T19:30:33.488Z,53.34
2024-04-07T19:33:01.507Z,54.13
2024-04-07T19:35:30.137Z,54.99
2024-04-07T19:38:00.024Z,55.60
2024-04-07T19:40:30.095Z,56.30
2024-04-07T19:42:58.616Z,56.56
2024-04-07T19:45:27.216Z,56.82
2024-04-07T19:47:53.784Z,57.70
2024-04-07T19:50:22.695Z,58.12
2024-04-07T19:52:52.017Z,58.66
2024-04-07T19:55:20.532Z,58.82
2024-04-07T19:57:47.145Z,59.56
2024-04-07T20:00:18.851Z,60.08
2024-04-07T20:02:46.926Z,60.46
2024-04-07T20:05:16.339Z,60.98
2024-04-07T20:07:42.950Z,62.09
2024-04-07T20:10:11.913Z,62.43
2024-04-07T20:12:38.943Z,62.48
2024-04-07T20:15:09.103Z,62.99
2024-04-07T20:17:37.849Z,63.20
2024-04-07T20:20:06.966Z,63.79
2024-04-07T20:22:37.125Z,64.11
2024-04-07T20:25:10.599Z,64.56
2024-04-07T20:27:37.114Z,65.09
2024-04-07T20:30:06.304Z,65.74
2024-04-07T20:32:32.742Z,66.90
2024-04-07T20:35:03.408Z,67.50
2024-04-07T20:37:30.100Z,67.77
2024-04-07T20:40:00.144Z,68.02
2024-04-07T20:42:26.640Z,68.33
2024-04-07T20:44:55.434Z,68.42
2024-04-07T20:47:22.248Z,68.62
2024-04-07T20:49:51.024Z,68.89
2024-04-07T20:52:19.883Z,69.29
2024-04-07T20:54:49.186Z,69.94
2024-04-07T20:57:15.705Z,70.22
2024-04-07T20:59:44.171Z,70.73
2024-04-07T21:02:10.915Z,70.95
2024-04-07T21:04:40.889Z,71.06
2024-04-07T21:07:07.426Z,71.23
2024-04-07T21:09:38.074Z,71.99
2024-04-07T21:12:05.932Z,72.17
2024-04-07T21:14:35.040Z,72.26
2024-04-07T21:17:01.540Z,72.57
2024-04-07T21:19:30.037Z,72.84
2024-04-07T21:21:56.535Z,72.97
2024-04-07T21:24:25.170Z,73.55
2024-04-07T21:26:53.658Z,73.68
2024-04-07T21:29:22.354Z,73.80
2024-04-07T21:31:51.279Z,73.81
2024-04-07T21:34:19.728Z,73.49
2024-04-07T21:36:46.188Z,73.79
2024-04-07T21:39:14.846Z,74.29
2024-04-07T21:41:41.261Z,73.93
2024-04-07T21:44:11.570Z,74.34
2024-04-07T21:46:39.720Z,73.04
2024-04-07T21:49:11.498Z,72.88
2024-04-07T21:51:37.925Z,73.17
2024-04-07T21:54:06.207Z,73.33
2024-04-07T21:56:32.633Z,73.36
2024-04-07T21:59:01.205Z,73.18
2024-04-07T22:01:29.907Z,73.26
2024-04-07T22:03:58.323Z,73.58
2024-04-07T22:06:24.846Z,73.88
2024-04-07T22:08:53.334Z,74.08
2024-04-07T22:11:19.742Z,73.86
2024-04-07T22:13:47.949Z,74.73
2024-04-07T22:16:14.393Z,73.88
2024-04-07T22:18:44.647Z,75.29
2024-04-07T22:21:11.064Z,73.96
2024-04-07T22:23:39.320Z,75.17
2024-04-07T22:26:05.709Z,73.78
2024-04-07T22:28:33.981Z,75.66
2024-04-07T22:31:00.736Z,74.49
2024-04-07T22:33:29.644Z,74.72
2024-04-07T22:35:58.122Z,74.89
2024-04-07T22:38:26.550Z,75.31
2024-04-07T22:40:52.987Z,75.49
2024-04-07T22:43:21.192Z,77.08
2024-04-07T22:45:48.615Z,75.82
2024-04-07T22:48:17.026Z,75.80
2024-04-07T22:50:43.465Z,75.90
2024-04-07T22:53:13.729Z,77.05
2024-04-07T22:55:40.324Z,76.02
2024-04-07T22:58:08.811Z,76.35
2024-04-07T23:00:38.918Z,76.19
2024-04-07T23:03:07.579Z,76.34
2024-04-07T23:05:34.307Z,76.58
2024-04-07T23:08:02.852Z,76.75
2024-04-07T23:10:31.866Z,77.03
2024-04-07T23:13:01.873Z,77.19
2024-04-07T23:15:28.330Z,77.77
2024-04-07T23:17:56.548Z,78.36
2024-04-07T23:20:23.161Z,77.59
2024-04-07T23:22:51.613Z,77.84
2024-04-07T23:25:18.032Z,77.85
2024-04-07T23:27:48.888Z,78.44
2024-04-07T23:30:15.855Z,78.15
2024-04-07T23:32:44.697Z,78.20
2024-04-07T23:35:11.178Z,78.14
2024-04-07T23:37:39.381Z,78.47
2024-04-07T23:40:09.339Z,78.40
2024-04-07T23:42:39.270Z,78.11
2024-04-07T23:45:07.923Z,78.38
2024-04-07T23:47:37.456Z,78.76
2024-04-07T23:50:04.533Z,78.90
2024-04-07T23:52:32.996Z,79.08
2024-04-07T23:54:59.360Z,79.81
2024-04-07T23:57:27.789Z,80.02
2024-04-07T23:59:54.163Z,80.01
